Time;durP1;ratioP1;P1;durP2;ratioP2;P2;SDS_P1;SDS_P2;PMS_P1;PMS_P2;Temp;Humidity;BMP_temperature;BMP_pressure;BME280_temperature;BME280_humidity;BME280_pressure;Samples;Min_cycle;Max_cycle;Signal;HPM_P1;HPM_P2
2022/12/04 00:00:56;;;;;;;34.03;17.33;;;;;;;;;;5004636;28;20537;-58
2022/12/04 00:03:22;;;;;;;33.33;17.92;;;;;;;;;;5001813;28;20506;-58
2022/12/04 00:05:48;;;;;;;31.92;17.17;;;;;;;;;;5005242;28;20402;-58
2022/12/04 00:08:14;;;;;;;31.38;17.30;;;;;;;;;;5004687;28;20116;-58
2022/12/04 00:10:43;;;;;;;35.67;18.10;;;;;;;;;;5004009;28;20048;-58
2022/12/04 00:13:09;;;;;;;32.22;18.67;;;;;;;;;;5005903;28;20053;-58
2022/12/04 00:15:40;;;;;;;29.38;16.75;;;;;;;;;;5004294;28;20046;-59
2022/12/04 00:18:06;;;;;;;30.25;16.15;;;;;;;;;;5005977;28;20926;-58
2022/12/04 00:20:32;;;;;;;30.83;15.88;;;;;;;;;;5001711;28;20187;-58
2022/12/04 00:22:58;;;;;;;26.55;13.20;;;;;;;;;;5002579;28;20282;-58
2022/12/04 00:25:24;;;;;;;30.35;16.13;;;;;;;;;;5003619;28;20038;-58
2022/12/04 00:27:50;;;;;;;28.58;14.93;;;;;;;;;;5001153;28;20064;-58
2022/12/04 00:30:16;;;;;;;29.67;13.98;;;;;;;;;;5005845;28;20112;-58
2022/12/04 00:32:42;;;;;;;29.73;16.40;;;;;;;;;;5002032;28;20041;-58
2022/12/04 00:35:09;;;;;;;31.27;15.88;;;;;;;;;;5001249;28;20037;-59
2022/12/04 00:37:35;;;;;;;29.23;16.83;;;;;;;;;;5002958;28;20077;-58
2022/12/04 00:40:01;;;;;;;26.13;14.65;;;;;;;;;;5004432;28;20547;-58
2022/12/04 00:42:27;;;;;;;29.42;16.42;;;;;;;;;;5003062;28;20336;-58
2022/12/04 00:44:53;;;;;;;27.23;15.70;;;;;;;;;;5001481;28;20136;-58
2022/12/04 00:47:19;;;;;;;20.15;9.82;;;;;;;;;;5000695;28;20438;-58
2022/12/04 00:49:45;;;;;;;30.83;16.52;;;;;;;;;;5002765;28;20033;-58
2022/12/04 00:52:11;;;;;;;31.05;16.05;;;;;;;;;;5002676;28;20048;-58
2022/12/04 00:54:38;;;;;;;29.02;14.57;;;;;;;;;;5002873;28;20030;-58
2022/12/04 00:57:04;;;;;;;28.42;17.00;;;;;;;;;;5003298;28;20053;-58
2022/12/04 00:59:30;;;;;;;29.40;15.23;;;;;;;;;;4999260;28;20060;-58
2022/12/04 01:01:56;;;;;;;30.08;16.52;;;;;;;;;;4998721;28;20141;-58
2022/12/04 01:04:22;;;;;;;30.35;16.52;;;;;;;;;;4997601;28;20046;-58
2022/12/04 01:06:48;;;;;;;27.20;16.38;;;;;;;;;;4999800;28;20038;-58
2022/12/04 01:09:14;;;;;;;28.77;16.23;;;;;;;;;;5003050;28;20172;-58
2022/12/04 01:11:40;;;;;;;29.73;15.27;;;;;;;;;;5006362;28;20041;-59
2022/12/04 01:14:07;;;;;;;34.08;16.80;;;;;;;;;;5003864;28;20584;-58
2022/12/04 01:16:35;;;;;;;28.15;14.07;;;0.60;99.90;;;;;;5006637;28;20122;-59
2022/12/04 01:19:02;;;;;;;32.00;17.38;;;;;;;;;;5001230;28;20092;-59
2022/12/04 01:21:28;;;;;;;31.05;15.75;;;;;;;;;;5001955;28;20091;-58
2022/12/04 01:23:54;;;;;;;26.63;13.35;;;;;;;;;;5002777;28;20037;-58
2022/12/04 01:26:20;;;;;;;32.40;17.67;;;;;;;;;;5006818;28;20462;-58
2022/12/04 01:28:46;;;;;;;35.28;18.55;;;;;;;;;;5002477;28;20044;-59
2022/12/04 01:31:13;;;;;;;27.50;13.77;;;;;;;;;;5002239;28;20060;-58
2022/12/04 01:33:40;;;;;;;31.85;17.35;;;;;;;;;;5001143;28;20824;-59
2022/12/04 01:36:08;;;;;;;29.40;14.77;;;;;;;;;;5003109;28;20034;-58
2022/12/04 01:38:35;;;;;;;36.22;18.67;;;;;;;;;;4999627;28;20248;-58
2022/12/04 01:41:01;;;;;;;31.88;13.20;;;;;;;;;;5005396;28;20048;-58
2022/12/04 01:43:29;;;;;;;36.33;18.15;;;;;;;;;;5007267;28;20046;-58
2022/12/04 01:45:56;;;;;;;34.70;18.30;;;;;;;;;;4998650;28;21018;-58
2022/12/04 01:48:26;;;;;;;37.67;19.95;;;;;;;;;;5005990;28;20119;-58
2022/12/04 01:50:55;;;;;;;36.13;17.63;;;;;;;;;;5002177;28;20037;-58
2022/12/04 01:53:21;;;;;;;36.47;18.77;;;;;;;;;;5003657;28;20073;-58
2022/12/04 01:55:47;;;;;;;32.03;12.93;;;;;;;;;;5004556;28;20045;-58
2022/12/04 01:58:14;;;;;;;21.30;10.32;;;;;;;;;;5006021;28;20119;-58
2022/12/04 02:00:41;;;;;;;35.53;18.45;;;;;;;;;;5004855;28;20053;-58
2022/12/04 02:03:07;;;;;;;31.38;16.00;;;;;;;;;;5006405;28;20048;-58
2022/12/04 02:05:33;;;;;;;32.85;17.35;;;;;;;;;;5006905;28;20355;-58
2022/12/04 02:08:00;;;;;;;38.38;18.42;;;;;;;;;;5005282;28;20041;-59
2022/12/04 02:10:35;;;;;;;33.97;17.70;;;;;;;;;;5006325;28;20041;-58
2022/12/04 02:13:09;;;;;;;30.48;16.35;;;;;;;;;;5004033;28;20096;-58
2022/12/04 02:16:02;;;;;;;35.92;17.55;;;;;;;;;;5004379;28;20072;-58
2022/12/04 02:18:54;;;;;;;33.55;15.52;;;;;;;;;;4987031;28;20080;-58
2022/12/04 02:21:31;;;;;;;41.13;19.02;;;;;;;;;;5006709;28;20109;-59
2022/12/04 02:24:16;;;;;;;39.20;20.63;;;;;;;;;;5003815;28;20033;-58
2022/12/04 02:26:54;;;;;;;38.30;21.27;;;;;;;;;;5006703;28;20060;-58
2022/12/04 02:29:26;;;;;;;41.45;20.40;;;;;;;;;;5003763;28;20077;-59
2022/12/04 02:32:08;;;;;;;32.30;17.20;;;;;;;;;;5004408;28;20050;-59
2022/12/04 02:34:40;;;;;;;37.33;19.65;;;;;;;;;;5007225;28;20100;-58
2022/12/04 02:37:12;;;;;;;43.60;22.08;;;;;;;;;;5002271;28;20057;-58
2022/12/04 02:39:44;;;;;;;30.60;15.93;;;;;;;;;;5007535;28;20034;-58
2022/12/04 02:42:13;;;;;;;41.67;21.35;;;;;;;;;;5001887;28;20817;-58
2022/12/04 02:44:43;;;;;;;36.88;21.55;;;;;;;;;;5009280;28;20075;-58
2022/12/04 02:47:12;;;;;;;44.22;23.73;;;;;;;;;;5006238;28;20073;-59
2022/12/04 02:49:41;;;;;;;36.08;18.35;;;;;;;;;;5007872;28;20053;-58
2022/12/04 02:52:09;;;;;;;37.15;20.77;;;;;;;;;;5006038;28;20084;-58
2022/12/04 02:54:37;;;;;;;40.35;19.63;;;;;;;;;;5002512;28;20424;-58
2022/12/04 02:57:06;;;;;;;40.03;22.42;;;;;;;;;;5005021;28;20053;-58
2022/12/04 02:59:35;;;;;;;40.58;21.15;;;;;;;;;;5004373;28;25363;-59
2022/12/04 03:02:03;;;;;;;44.55;23.65;;;;;;;;;;5000675;28;20053;-59
2022/12/04 03:04:30;;;;;;;30.52;14.98;;;;;;;;;;5004646;28;20037;-58
2022/12/04 03:07:01;;;;;;;41.15;20.90;;;0.10;99.90;;;;;;5001829;28;20698;-58
2022/12/04 03:09:39;;;;;;;39.38;23.50;;;;;;;;;;5003012;28;20046;-58
2022/12/04 03:12:16;;;;;;;43.88;24.27;;;;;;;;;;5003867;28;20037;-56
2022/12/04 03:14:45;;;;;;;48.70;23.42;;;;;;;;;;4999942;28;20045;-58
2022/12/04 03:17:17;;;;;;;43.53;23.65;;;;;;;;;;5006775;28;20049;-58
2022/12/04 03:19:49;;;;;;;43.95;24.33;;;;;;;;;;5002393;28;20168;-58
2022/12/04 03:22:18;;;;;;;39.05;18.70;;;0.10;99.90;;;;;;5003364;28;20120;-58
2022/12/04 03:24:51;;;;;;;50.08;26.20;;;;;;;;;;5002642;28;20081;-58
2022/12/04 03:27:25;;;;;;;36.40;19.13;;;;;;;;;;5001738;28;20058;-58
2022/12/04 03:29:51;;;;;;;47.60;25.25;;;;;;;;;;5004105;28;20079;-58
2022/12/04 03:32:24;;;;;;;50.78;25.20;;;;;;;;;;5005058;28;20140;-58
2022/12/04 03:34:58;;;;;;;46.75;25.10;;;;;;;;;;5002036;28;20068;-58
2022/12/04 03:37:47;;;;;;;47.30;25.10;;;;;;;;;;4998588;28;20108;-58
2022/12/04 03:40:23;;;;;;;49.63;25.50;;;;;;;;;;5002289;28;20046;-59
2022/12/04 03:42:56;;;;;;;48.75;26.05;;;;;;;;;;5005079;28;20537;-58
2022/12/04 03:45:24;;;;;;;43.67;24.20;;;;;;;;;;5002206;28;20789;-59
2022/12/04 03:48:01;;;;;;;39.75;20.55;;;;;;;;;;5002669;28;20045;-58
2022/12/04 03:50:32;;;;;;;35.92;18.80;;;;;;;;;;5001979;28;20681;-58
2022/12/04 03:53:08;;;;;;;47.95;23.17;;;;;;;;;;5011095;28;20037;-59
2022/12/04 03:55:38;;;;;;;50.70;28.63;;;;;;;;;;5003358;28;20050;-58
2022/12/04 03:58:07;;;;;;;48.78;23.33;;;;;;;;;;5000040;28;20042;-58
2022/12/04 04:00:36;;;;;;;53.42;26.25;;;;;;;;;;5004269;28;20438;-58
2022/12/04 04:03:11;;;;;;;48.15;27.83;;;;;;;;;;5006318;28;20052;-58
2022/12/04 04:05:41;;;;;;;51.58;26.02;;;;;;;;;;4997439;28;20049;-59
2022/12/04 04:08:28;;;;;;;52.35;28.70;;;;;;;;;;5003030;28;20037;-58
2022/12/04 04:11:07;;;;;;;49.45;26.40;;;;;;;;;;5002782;28;20074;-58
2022/12/04 04:24:50;;;;;;;47.78;27.35;;;;;;;;;;5002350;28;20490;-58
2022/12/04 04:27:16;;;;;;;50.10;24.20;;;;;;;;;;5005139;28;20128;-58
2022/12/04 04:29:43;;;;;;;47.08;24.88;;;;;;;;;;5005058;28;20533;-58
2022/12/04 04:32:24;;;;;;;44.22;23.10;;;0.00;99.90;;;;;;5002553;28;20073;-58
2022/12/04 04:34:53;;;;;;;48.38;26.33;;;;;;;;;;4997265;28;20403;-58
2022/12/04 04:37:19;;;;;;;54.75;30.77;;;;;;;;;;5003754;28;22222;-58
2022/12/04 04:39:54;;;;;;;55.33;27.88;;;;;;;;;;5014628;28;20042;-58
2022/12/04 04:42:26;;;;;;;54.15;28.70;;;;;;;;;;5004618;28;20537;-58
2022/12/04 04:45:11;;;;;;;47.65;25.17;;;;;;;;;;5006075;28;20053;-58
2022/12/04 04:47:41;;;;;;;54.83;29.92;;;;;;;;;;4999466;28;20045;-58
2022/12/04 04:50:10;;;;;;;50.60;25.92;;;-0.10;99.90;;;;;;5003433;28;20402;-58
2022/12/04 04:52:38;;;;;;;47.53;24.15;;;;;;;;;;5000969;28;20434;-58
2022/12/04 04:55:05;;;;;;;50.75;26.13;;;;;;;;;;5002514;28;20526;-58
2022/12/04 04:57:34;;;;;;;54.58;28.65;;;;;;;;;;5001082;28;20072;-58
2022/12/04 05:00:01;;;;;;;58.60;28.80;;;;;;;;;;5001804;28;20712;-58
2022/12/04 05:02:27;;;;;;;54.50;29.05;;;;;;;;;;5002221;28;20072;-58
2022/12/04 05:04:54;;;;;;;57.20;28.90;;;;;;;;;;5001286;28;20042;-59
2022/12/04 05:07:20;;;;;;;45.42;23.13;;;;;;;;;;5001790;28;20181;-58
2022/12/04 05:09:46;;;;;;;55.58;30.23;;;;;;;;;;5003734;28;20096;-58
2022/12/04 05:12:12;;;;;;;56.03;29.10;;;;;;;;;;5003486;28;20052;-58
2022/12/04 05:14:39;;;;;;;58.05;31.15;;;;;;;;;;5007575;28;20038;-58
2022/12/04 05:17:05;;;;;;;57.53;30.67;;;;;;;;;;5003352;28;20044;-58
2022/12/04 05:22:17;;;;;;;50.50;28.42;;;;;;;;;;5006838;28;20565;-58
2022/12/04 05:24:43;;;;;;;51.65;27.30;;;;;;;;;;5002434;28;20041;-58
2022/12/04 05:27:09;;;;;;;51.28;26.08;;;;;;;;;;5006082;28;20088;-58
2022/12/04 05:29:35;;;;;;;54.17;29.70;;;;;;;;;;5005999;28;20050;-58
2022/12/04 05:32:01;;;;;;;49.83;26.40;;;;;;;;;;5007660;28;20042;-58
2022/12/04 05:34:27;;;;;;;55.10;28.80;;;;;;;;;;5008475;28;20251;-58
2022/12/04 05:36:54;;;;;;;54.95;29.50;;;;;;;;;;5008254;28;20048;-58
2022/12/04 05:39:20;;;;;;;56.30;31.00;;;;;;;;;;5008372;28;20048;-58
2022/12/04 05:41:46;;;;;;;51.92;27.45;;;;;;;;;;5007019;28;20045;-58
2022/12/04 05:44:12;;;;;;;52.83;29.10;;;;;;;;;;5006921;28;20068;-58
2022/12/04 05:46:38;;;;;;;40.45;22.40;;;;;;;;;;5006445;28;20693;-58
2022/12/04 05:49:04;;;;;;;54.72;26.20;;;;;;;;;;5008677;28;20041;-58
2022/12/04 05:51:31;;;;;;;54.65;29.27;;;;;;;;;;5005648;28;21110;-57
2022/12/04 05:53:57;;;;;;;44.78;23.15;;;;;;;;;;5008787;28;20584;-58
2022/12/04 05:56:23;;;;;;;53.03;28.67;;;;;;;;;;5006652;28;20423;-58
2022/12/04 05:58:49;;;;;;;49.95;28.13;;;;;;;;;;5004802;28;20867;-56
2022/12/04 06:01:16;;;;;;;55.65;28.90;;;;;;;;;;5005913;28;20786;-57
2022/12/04 06:03:43;;;;;;;53.88;29.85;;;;;;;;;;5005195;28;20565;-58
2022/12/04 06:06:16;;;;;;;50.05;28.50;;;;;;;;;;5008635;28;20568;-58
2022/12/04 06:08:42;;;;;;;50.70;27.98;;;;;;;;;;5004349;28;20046;-58
2022/12/04 06:11:15;;;;;;;54.58;29.40;;;;;;;;;;5007122;28;20037;-58
2022/12/04 06:13:42;;;;;;;52.83;29.02;;;;;;;;;;5003653;28;20056;-58
2022/12/04 06:16:13;;;;;;;54.22;29.52;;;0.10;99.90;;;;;;5004270;28;20111;-58
2022/12/04 06:18:39;;;;;;;46.38;24.63;;;;;;;;;;5003687;28;20042;-58
2022/12/04 06:21:06;;;;;;;54.47;28.13;;;;;;;;;;5004209;28;20042;-58
2022/12/04 06:23:32;;;;;;;51.35;26.33;;;;;;;;;;5006032;28;20736;-58
2022/12/04 06:26:01;;;;;;;51.72;28.40;;;;;;;;;;5003706;28;20037;-58
2022/12/04 06:28:27;;;;;;;48.58;27.73;;;;;;;;;;5007570;28;20095;-58
2022/12/04 06:30:53;;;;;;;49.10;29.02;;;;;;;;;;5004904;28;20136;-58
2022/12/04 06:33:19;;;;;;;52.67;27.33;;;;;;;;;;5006608;28;20077;-58
2022/12/04 06:35:46;;;;;;;51.08;26.73;;;;;;;;;;5004681;28;20041;-58
2022/12/04 06:38:12;;;;;;;37.60;18.75;;;;;;;;;;5006921;28;20536;-58
2022/12/04 06:40:41;;;;;;;50.90;27.27;;;;;;;;;;5006259;28;20103;-58
2022/12/04 06:43:07;;;;;;;48.20;27.63;;;;;;;;;;5005945;28;20462;-58
2022/12/04 06:45:33;;;;;;;41.50;21.05;;;0.20;99.90;;;;;;5005280;28;20425;-58
2022/12/04 06:47:59;;;;;;;45.65;24.40;;;;;;;;;;5005631;28;20065;-58
2022/12/04 06:50:25;;;;;;;46.45;25.27;;;;;;;;;;5006520;28;20514;-58
2022/12/04 06:52:51;;;;;;;50.28;28.13;;;;;;;;;;5003639;28;20440;-58
2022/12/04 06:55:17;;;;;;;44.25;22.50;;;;;;;;;;5003791;28;20057;-58
2022/12/04 06:57:43;;;;;;;47.42;25.75;;;;;;;;;;5005530;28;20056;-58
2022/12/04 07:00:09;;;;;;;49.92;28.67;;;;;;;;;;5007746;28;20046;-58
2022/12/04 07:02:35;;;;;;;50.45;27.08;;;;;;;;;;5002969;28;20045;-58
2022/12/04 07:05:01;;;;;;;50.72;27.60;;;;;;;;;;5007617;28;20044;-58
2022/12/04 07:07:28;;;;;;;47.03;23.40;;;;;;;;;;5005701;28;20045;-58
2022/12/04 07:09:54;;;;;;;47.72;25.10;;;;;;;;;;5008270;28;20406;-58
2022/12/04 07:12:20;;;;;;;47.58;23.02;;;;;;;;;;5005227;28;20517;-58
2022/12/04 07:14:46;;;;;;;53.90;29.75;;;;;;;;;;5005014;28;20490;-58
2022/12/04 07:17:12;;;;;;;46.35;24.52;;;;;;;;;;5004597;28;20045;-58
2022/12/04 07:19:38;;;;;;;33.85;15.25;;;;;;;;;;5002886;28;20038;-58
2022/12/04 07:22:04;;;;;;;33.63;18.23;;;;;;;;;;5004769;28;20045;-57
2022/12/04 07:24:33;;;;;;;44.72;22.15;;;;;;;;;;5004656;28;20111;-58
2022/12/04 07:26:59;;;;;;;52.55;24.95;;;;;;;;;;5002830;28;20195;-58
2022/12/04 07:29:25;;;;;;;49.60;24.77;;;;;;;;;;5001058;28;20075;-58
2022/12/04 07:31:51;;;;;;;53.28;28.08;;;;;;;;;;5007469;28;20453;-58
2022/12/04 07:34:17;;;;;;;47.97;23.95;;;;;;;;;;5004718;28;20136;-58
2022/12/04 07:36:43;;;;;;;54.28;28.60;;;;;;;;;;4999138;28;20042;-57
2022/12/04 07:39:09;;;;;;;49.22;24.98;;;;;;;;;;5005521;28;20514;-58
2022/12/04 07:41:35;;;;;;;60.05;29.10;;;;;;;;;;5000460;28;20048;-58
2022/12/04 07:44:01;;;;;;;46.67;22.88;;;;;;;;;;5002413;28;20045;-58
2022/12/04 07:46:28;;;;;;;58.92;29.27;;;;;;;;;;5002013;28;20064;-58
2022/12/04 07:48:55;;;;;;;49.90;23.88;;;0.20;99.90;;;;;;5003539;28;20073;-58
2022/12/04 07:51:23;;;;;;;51.88;27.95;;;;;;;;;;5000380;28;20418;-58
2022/12/04 07:53:52;;;;;;;54.20;29.52;;;;;;;;;;5006666;28;20102;-58
2022/12/04 07:56:18;;;;;;;52.33;29.13;;;;;;;;;;5001031;28;20132;-58
2022/12/04 07:58:44;;;;;;;59.70;30.65;;;;;;;;;;5003029;28;20692;-57
2022/12/04 08:01:14;;;;;;;48.38;24.15;;;;;;;;;;5000939;28;20038;-58
2022/12/04 08:03:40;;;;;;;46.75;23.73;;;;;;;;;;4999061;28;20034;-58
2022/12/04 08:06:07;;;;;;;53.10;26.75;;;;;;;;;;5004589;28;20128;-58
2022/12/04 08:08:33;;;;;;;59.05;29.65;;;;;;;;;;5005996;28;20041;-58
2022/12/04 08:10:59;;;;;;;55.42;29.63;;;;;;;;;;5004745;28;20477;-58
2022/12/04 08:13:26;;;;;;;56.45;27.85;;;;;;;;;;5004454;28;20129;-58
2022/12/04 08:15:52;;;;;;;59.63;29.50;;;;;;;;;;5003061;28;20053;-58
2022/12/04 08:18:18;;;;;;;52.40;29.08;;;;;;;;;;4997910;28;20107;-58
2022/12/04 08:20:45;;;;;;;59.38;30.88;;;;;;;;;;5004407;28;20186;-58
2022/12/04 08:23:11;;;;;;;53.55;27.42;;;;;;;;;;5004885;28;20029;-58
2022/12/04 08:25:40;;;;;;;55.03;29.25;;;0.40;99.90;;;;;;5003437;28;20425;-58
2022/12/04 08:28:06;;;;;;;56.90;29.05;;;;;;;;;;5002255;28;20739;-58
2022/12/04 08:30:34;;;;;;;45.63;23.67;;;0.40;99.90;;;;;;4995796;28;20053;-58
2022/12/04 08:33:00;;;;;;;55.95;29.85;;;;;;;;;;5002407;28;20469;-58
2022/12/04 08:35:26;;;;;;;53.85;29.17;;;;;;;;;;5003889;28;20049;-58
2022/12/04 08:37:52;;;;;;;40.85;20.25;;;;;;;;;;4998618;28;20310;-57
2022/12/04 08:40:18;;;;;;;43.30;22.83;;;0.50;99.90;;;;;;4997691;28;20046;-58
2022/12/04 08:42:44;;;;;;;46.75;24.85;;;;;;;;;;5002856;28;20053;-58
2022/12/04 08:45:10;;;;;;;38.97;18.10;;;;;;;;;;5003701;28;20044;-58
2022/12/04 08:47:36;;;;;;;51.85;28.05;;;;;;;;;;5002934;28;20056;-58
2022/12/04 08:50:02;;;;;;;53.22;26.33;;;;;;;;;;5005841;28;20065;-57
2022/12/04 08:52:28;;;;;;;49.40;28.33;;;;;;;;;;5006512;28;20033;-58
2022/12/04 08:54:54;;;;;;;43.30;20.90;;;;;;;;;;5005007;28;20038;-58
2022/12/04 08:57:20;;;;;;;49.55;26.15;;;;;;;;;;4996424;28;20065;-58
2022/12/04 08:59:46;;;;;;;49.03;24.75;;;;;;;;;;4999644;28;20045;-58
2022/12/04 09:02:15;;;;;;;55.17;26.27;;;;;;;;;;5007827;28;20224;-58
2022/12/04 09:04:41;;;;;;;48.80;25.73;;;;;;;;;;5001711;28;20050;-58
2022/12/04 09:07:07;;;;;;;52.80;27.52;;;;;;;;;;5005174;28;20372;-57
2022/12/04 09:09:34;;;;;;;49.13;26.88;;;;;;;;;;5001269;28;20481;-58
2022/12/04 09:12:00;;;;;;;45.53;25.00;;;;;;;;;;5006834;28;20077;-58
2022/12/04 09:14:26;;;;;;;49.58;26.92;;;;;;;;;;5008589;28;20621;-58
2022/12/04 09:16:53;;;;;;;48.50;25.73;;;;;;;;;;5006105;28;20060;-58
2022/12/04 09:19:21;;;;;;;40.80;22.27;;;1.00;99.90;;;;;;5007210;28;20037;-58
2022/12/04 09:21:47;;;;;;;42.55;22.95;;;;;;;;;;5007074;28;20033;-58
2022/12/04 09:24:13;;;;;;;43.42;24.38;;;;;;;;;;5008836;28;20678;-59
2022/12/04 09:26:39;;;;;;;43.28;25.20;;;;;;;;;;5007171;28;20571;-58
2022/12/04 09:29:06;;;;;;;43.13;23.15;;;;;;;;;;5007126;28;20325;-58
2022/12/04 09:31:32;;;;;;;49.30;24.55;;;;;;;;;;5006816;28;20041;-59
2022/12/04 09:33:59;;;;;;;46.83;25.45;;;;;;;;;;5005684;28;20033;-58
2022/12/04 09:36:25;;;;;;;48.88;26.75;;;;;;;;;;4996189;28;20042;-58
2022/12/04 09:38:52;;;;;;;47.60;26.80;;;1.00;99.90;;;;;;4998715;28;20697;-58
2022/12/04 09:41:37;;;;;;;43.58;23.85;;;1.10;99.90;;;;;;5003848;28;20059;-58
2022/12/04 09:44:03;;;;;;;42.30;25.38;;;;;;;;;;5004111;28;20378;-58
2022/12/04 09:46:29;;;;;;;34.58;18.95;;;;;;;;;;5011285;28;20049;-58
2022/12/04 09:48:58;;;;;;;43.15;25.38;;;1.10;99.90;;;;;;5004070;28;20034;-59
2022/12/04 09:51:25;;;;;;;45.90;26.52;;;;;;;;;;5003846;28;20038;-58
2022/12/04 09:53:56;;;;;;;45.13;23.88;;;2.20;99.90;;;;;;5000866;28;20407;-58
2022/12/04 09:56:26;;;;;;;44.30;25.30;;;1.40;99.90;;;;;;5003241;28;20141;-59
2022/12/04 09:58:58;;;;;;;40.33;23.50;;;1.30;99.90;;;;;;5001595;28;20716;-58
2022/12/04 10:01:47;;;;;;;41.42;23.88;;;1.30;99.90;;;;;;5002994;28;20493;-58
2022/12/04 10:04:13;;;;;;;33.22;18.67;;;1.50;99.90;;;;;;5001888;28;20600;-57
2022/12/04 10:06:46;;;;;;;32.33;17.30;;;1.70;99.90;;;;;;5006607;28;20029;-58
2022/12/04 10:09:21;;;;;;;32.92;16.88;;;1.50;99.90;;;;;;5005426;28;20041;-58
2022/12/04 10:11:59;;;;;;;35.38;22.60;;;;;;;;;;5003516;28;20049;-57
2022/12/04 10:14:25;;;;;;;24.98;13.85;;;;;;;;;;5002784;28;21105;-58
2022/12/04 10:16:51;;;;;;;27.75;14.73;;;;;;;;;;5002772;28;20050;-57
2022/12/04 10:19:27;;;;;;;39.13;23.55;;;;;;;;;;5002053;28;20049;-58
2022/12/04 10:22:27;;;;;;;36.40;21.02;;;1.80;99.90;;;;;;5004404;28;20335;-58
2022/12/04 10:24:57;;;;;;;35.78;20.42;;;1.90;99.90;;;;;;5007376;28;20099;-57
2022/12/04 10:27:32;;;;;;;37.78;21.65;;;1.90;99.90;;;;;;4999257;28;20383;-57
2022/12/04 10:30:03;;;;;;;38.10;20.92;;;2.00;99.90;;;;;;5004832;28;20050;-58
2022/12/04 10:32:32;;;;;;;29.27;16.10;;;1.90;99.90;;;;;;5003663;28;20131;-58
2022/12/04 10:35:21;;;;;;;24.52;14.55;;;1.90;99.90;;;;;;5007980;28;20119;-58
2022/12/04 10:37:52;;;;;;;35.50;20.67;;;;;;;;;;5002462;28;20111;-58
2022/12/04 10:40:22;;;;;;;25.27;13.05;;;1.90;99.90;;;;;;5002720;28;20463;-57
2022/12/04 10:43:02;;;;;;;29.02;16.85;;;2.20;99.90;;;;;;5006871;28;20041;-57
2022/12/04 10:45:28;;;;;;;30.85;16.85;;;;;;;;;;5005025;28;20042;-58
2022/12/04 10:47:54;;;;;;;27.25;14.90;;;;;;;;;;5004763;28;20049;-58
2022/12/04 10:50:23;;;;;;;23.23;13.95;;;2.10;99.90;;;;;;5004659;28;20789;-58
2022/12/04 10:52:49;;;;;;;26.45;16.70;;;;;;;;;;5003870;28;20038;-58
2022/12/04 10:55:15;;;;;;;25.25;11.23;;;;;;;;;;5005584;28;20041;-57
2022/12/04 10:57:45;;;;;;;31.23;18.27;;;2.20;99.90;;;;;;5002062;28;20060;-58
2022/12/04 11:00:30;;;;;;;28.35;12.90;;;2.00;99.90;;;;;;5005605;28;20418;-58
2022/12/04 11:03:01;;;;;;;23.20;11.80;;;2.40;99.90;;;;;;5001501;28;20545;-57
2022/12/04 11:05:34;;;;;;;29.07;15.33;;;2.20;99.90;;;;;;5000918;28;20061;-58
2022/12/04 11:08:03;;;;;;;25.80;15.20;;;2.10;99.90;;;;;;5004102;28;20581;-58
2022/12/04 11:10:41;;;;;;;29.58;15.90;;;2.20;99.90;;;;;;5004062;28;20034;-58
2022/12/04 11:13:14;;;;;;;27.52;15.98;;;2.30;99.90;;;;;;5008635;28;20052;-58
2022/12/04 11:15:44;;;;;;;31.50;17.23;;;2.20;99.90;;;;;;5002924;28;20557;-58
2022/12/04 11:18:21;;;;;;;27.42;14.55;;;2.40;99.90;;;;;;5000815;28;20127;-57
2022/12/04 11:21:13;;;;;;;26.65;15.15;;;2.40;99.90;;;;;;5009052;28;20045;-58
2022/12/04 11:23:44;;;;;;;;;;;2.30;99.90;;;;;;5002858;28;20046;-58
2022/12/04 11:26:10;;;;;;;23.50;14.77;;;2.20;99.90;;;;;;4999674;28;20785;-58
2022/12/04 11:28:39;;;;;;;25.83;14.82;;;;;;;;;;5001192;28;20140;-58
2022/12/04 11:31:06;;;;;;;27.13;16.95;;;;;;;;;;5001780;28;20063;-58
2022/12/04 11:33:44;;;;;;;22.65;14.07;;;2.20;99.90;;;;;;5001529;28;20772;-58
2022/12/04 11:36:39;;;;;;;23.90;15.10;;;2.30;99.90;;;;;;5004954;28;20048;-58
2022/12/04 11:39:27;;;;;;;24.05;14.88;;;2.40;99.90;;;;;;5002087;28;20049;-58
2022/12/04 11:42:15;;;;;;;16.60;8.35;;;;;;;;;;5003992;28;20042;-58
2022/12/04 11:44:59;;;;;;;17.17;10.27;;;2.40;99.90;;;;;;5003608;28;20498;-58
2022/12/04 11:47:27;;;;;;;18.15;9.38;;;;;;;;;;5001613;28;20054;-57
2022/12/04 11:50:12;;;;;;;17.50;9.55;;;2.50;99.90;;;;;;5002741;28;20144;-58
2022/12/04 11:53:01;;;;;;;22.88;12.77;;;2.30;99.90;;;;;;5002579;28;20136;-58
2022/12/04 11:55:36;;;;;;;20.23;9.57;;;;;;;;;;5004242;28;20041;-58
2022/12/04 11:58:33;;;;;;;20.95;12.68;;;2.30;99.90;;;;;;5003478;28;20045;-58
2022/12/04 12:00:59;;;;;;;18.00;9.60;;;;;;;;;;4997441;28;20974;-58
2022/12/04 12:03:42;;;;;;;16.45;10.82;;;2.20;99.90;;;;;;5004455;28;20920;-58
2022/12/04 12:06:38;;;;;;;21.55;9.60;;;2.30;99.90;;;;;;5001476;28;20064;-57
2022/12/04 12:09:04;;;;;;;20.48;11.88;;;;;;;;;;4999269;28;20037;-57
2022/12/04 12:11:31;;;;;;;25.60;14.55;;;;;;;;;;5009350;28;20041;-59
2022/12/04 12:14:20;;;;;;;19.38;11.02;;;2.20;99.90;;;;;;5008861;28;20036;-58
2022/12/04 12:16:46;;;;;;;22.55;13.35;;;;;;;;;;4998906;28;20058;-58
2022/12/04 12:19:27;;;;;;;20.67;11.73;;;2.30;99.90;;;;;;5001911;28;20794;-58
2022/12/04 12:22:04;;;;;;;22.80;12.85;;;2.20;99.90;;;;;;5007051;28;20072;-58
2022/12/04 12:24:33;;;;;;;20.05;11.73;;;;;;;;;;4996025;28;20099;-58
2022/12/04 12:27:31;;;;;;;20.05;12.57;;;2.30;99.90;;;;;;5002319;28;20049;-58
2022/12/04 12:30:44;;;;;;;21.52;12.65;;;2.10;99.90;;;;;;5000360;28;20510;-58
2022/12/04 12:33:16;;;;;;;;;;;2.20;99.90;;;;;;4923838;29;20107;-58
2022/12/04 12:35:50;;;;;;;21.42;12.77;;;2.40;99.90;;;;;;4997354;28;19932;-58
2022/12/04 12:38:24;;;;;;;20.98;11.20;;;2.30;99.90;;;;;;5004071;28;20052;-58
2022/12/04 12:41:25;;;;;;;20.60;12.00;;;2.30;99.90;;;;;;5004947;28;20041;-58
2022/12/04 12:44:24;;;;;;;18.33;11.98;;;2.30;99.90;;;;;;5000034;28;20046;-58
2022/12/04 12:46:59;;;;;;;17.02;8.82;;;2.30;99.90;;;;;;4996760;28;20064;-59
2022/12/04 12:49:28;;;;;;;21.90;12.68;;;2.30;99.90;;;;;;5004220;28;20049;-59
2022/12/04 12:52:04;;;;;;;21.77;12.50;;;2.40;99.90;;;;;;5000625;28;20448;-58
2022/12/04 12:54:38;;;;;;;23.60;12.57;;;2.50;99.90;;;;;;5004385;28;20410;-59
2022/12/04 12:57:18;;;;;;;23.70;12.35;;;2.30;99.90;;;;;;5001380;28;20132;-59
2022/12/04 13:00:01;;;;;;;23.92;13.77;;;2.30;99.90;;;;;;5000799;28;20118;-58
2022/12/04 13:02:27;;;;;;;;;;;2.50;99.90;;;;;;4999568;28;20221;-58
2022/12/04 13:04:57;;;;;;;14.82;8.63;;;2.50;99.90;;;;;;5004925;28;19928;-58
2022/12/04 13:07:31;;;;;;;22.55;14.32;;;2.60;99.90;;;;;;5001363;28;20411;-59
2022/12/04 13:10:10;;;;;;;18.25;9.60;;;2.30;99.90;;;;;;4999706;28;20048;-58
2022/12/04 13:12:56;;;;;;;23.50;13.18;;;2.30;99.90;;;;;;4998407;28;20454;-59
2022/12/04 13:15:25;;;;;;;24.05;13.60;;;;;;;;;;5004686;28;20041;-59
2022/12/04 13:17:54;;;;;;;22.95;12.80;;;2.30;99.90;;;;;;5002004;28;20112;-59
2022/12/04 13:20:40;;;;;;;20.42;9.98;;;2.50;99.90;;;;;;4997298;28;20633;-59
2022/12/04 13:23:11;;;;;;;21.63;11.82;;;2.40;99.90;;;;;;4996820;28;20056;-59
2022/12/04 13:26:06;;;;;;;23.40;14.13;;;2.40;99.90;;;;;;4999192;28;20073;-59
2022/12/04 13:29:14;;;;;;;25.70;15.35;;;2.30;99.90;;;;;;4999187;28;20406;-48
2022/12/04 13:31:52;;;;;;;21.70;12.40;;;2.40;99.90;;;;;;4978655;28;20050;-47
2022/12/04 13:34:37;;;;;;;22.45;11.63;;;2.60;99.90;;;;;;5004830;28;20100;-47
2022/12/04 13:37:45;;;;;;;23.95;11.48;;;2.50;99.90;;;;;;5004830;28;20049;-45
2022/12/04 13:40:31;;;;;;;25.17;14.50;;;2.50;99.90;;;;;;4999860;28;20052;-44
2022/12/04 13:43:16;;;;;;;24.35;14.30;;;2.60;99.90;;;;;;4977095;28;20518;-47
2022/12/04 13:45:44;;;;;;;24.63;15.20;;;2.70;99.90;;;;;;5004248;28;20442;-50
2022/12/04 13:48:10;;;;;;;24.27;14.20;;;;;;;;;;5008528;28;20042;-47
2022/12/04 13:50:38;;;;;;;28.15;16.13;;;2.50;99.90;;;;;;5002285;28;20034;-46
2022/12/04 13:53:05;;;;;;;20.70;12.15;;;2.60;99.90;;;;;;5005881;28;20042;-45
2022/12/04 13:55:34;;;;;;;25.25;13.50;;;2.70;99.90;;;;;;5003792;28;20091;-45
2022/12/04 13:58:00;;;;;;;21.88;13.02;;;;;;;;;;5003846;28;20049;-45
2022/12/04 14:00:32;;;;;;;25.10;13.25;;;2.70;99.90;;;;;;5003079;28;20053;-46
2022/12/04 14:03:03;;;;;;;24.30;14.98;;;2.60;99.90;;;;;;5001380;28;20041;-45
2022/12/04 14:05:32;;;;;;;24.38;12.75;;;2.70;99.90;;;;;;5004356;28;20064;-44
2022/12/04 14:08:22;;;;;;;27.27;16.15;;;2.50;99.90;;;;;;5003759;28;20046;-48
2022/12/04 14:10:59;;;;;;;33.05;18.02;;;2.60;99.90;;;;;;5006525;28;20042;-46
2022/12/04 14:13:35;;;;;;;28.83;16.10;;;2.60;99.90;;;;;;5007097;28;20049;-48
2022/12/04 14:16:08;;;;;;;27.67;14.38;;;2.60;99.90;;;;;;4999009;28;20041;-45
2022/12/04 14:18:35;;;;;;;23.40;12.85;;;;;;;;;;5006718;28;20042;-44
2022/12/04 14:21:04;;;;;;;21.20;10.93;;;2.80;99.90;;;;;;5004028;28;20537;-45